createdAt,value
2022-11-23T00:01:34.963Z,98974.13
2022-11-23T00:04:37.534Z,98974.81
2022-11-23T00:07:39.810Z,98962.66
2022-11-23T00:10:42.351Z,98947.66
2022-11-23T00:13:45.048Z,98960.41
2022-11-23T00:16:47.579Z,98966.00
2022-11-23T00:19:51.654Z,98970.00
2022-11-23T00:22:54.258Z,98949.22
2022-11-23T00:25:56.514Z,98970.00
2022-11-23T00:28:59.049Z,98963.75
2022-11-23T00:32:02.167Z,98955.91
2022-11-23T00:35:05.047Z,98946.56
2022-11-23T00:38:07.549Z,98950.69
2022-11-23T00:41:13.204Z,98957.78
2022-11-23T00:44:15.478Z,98964.81
2022-11-23T00:47:18.052Z,98964.81
2022-11-23T00:50:20.283Z,98963.53
2022-11-23T00:53:24.938Z,98971.41
2022-11-23T00:56:28.675Z,98960.50
2022-11-23T00:59:31.562Z,98943.38
2022-11-23T01:02:36.169Z,98953.88
2022-11-23T01:05:39.681Z,98933.13
2022-11-23T01:08:42.686Z,98957.87
2022-11-23T01:11:45.859Z,98954.38
2022-11-23T01:14:48.196Z,98964.16
2022-11-23T01:17:50.709Z,98946.19
2022-11-23T01:20:52.996Z,98930.19
2022-11-23T01:23:56.383Z,98933.13
2022-11-23T01:26:58.796Z,98918.47
2022-11-23T01:30:02.086Z,98941.66
2022-11-23T01:33:05.005Z,98919.28
2022-11-23T01:36:15.405Z,98946.31
2022-11-23T01:39:19.124Z,98947.09
2022-11-23T01:42:21.706Z,98934.47
2022-11-23T01:45:40.502Z,98909.03
2022-11-23T01:49:09.389Z,98936.06
2022-11-23T01:52:18.239Z,98936.84
2022-11-23T01:55:21.402Z,98932.56
2022-11-23T01:58:28.368Z,98902.78
2022-11-23T02:01:31.268Z,98930.47
2022-11-23T02:04:37.338Z,98923.41
2022-11-23T02:07:40.937Z,98895.59
2022-11-23T02:10:43.648Z,98892.22
2022-11-23T02:13:48.739Z,98920.34
2022-11-23T02:16:51.730Z,98900.84
2022-11-23T02:20:04.987Z,98926.75
2022-11-23T02:23:20.434Z,98915.69
2022-11-23T02:26:32.131Z,98917.28
2022-11-23T02:29:44.338Z,98902.00
2022-11-23T02:32:46.875Z,98909.69
2022-11-23T02:35:54.887Z,98909.69
2022-11-23T02:39:01.985Z,98906.06
2022-11-23T02:42:05.309Z,98921.81
2022-11-23T02:45:33.080Z,98897.19
2022-11-23T02:48:36.247Z,98913.97
2022-11-23T02:51:39.124Z,98931.25
2022-11-23T02:54:41.907Z,98928.88
2022-11-23T02:57:44.473Z,98924.06
2022-11-23T03:00:46.881Z,98924.75
2022-11-23T03:03:52.570Z,98917.00
2022-11-23T03:06:55.234Z,98892.25
2022-11-23T03:09:58.055Z,98916.25
2022-11-23T03:13:00.569Z,98922.47
2022-11-23T03:16:03.585Z,98912.50
2022-11-23T03:19:06.114Z,98900.66
2022-11-23T03:22:08.838Z,98917.69
2022-11-23T03:25:11.330Z,98925.09
2022-11-23T03:28:14.824Z,98915.44
2022-11-23T03:31:17.300Z,98925.53
2022-11-23T03:34:19.986Z,98917.00
2022-11-23T03:37:22.365Z,98919.94
2022-11-23T03:40:24.928Z,98892.00
2022-11-23T03:43:33.457Z,98897.91
2022-11-23T03:46:36.021Z,98916.75
2022-11-23T03:49:38.467Z,98894.38
2022-11-23T03:52:40.999Z,98902.13
2022-11-23T03:55:46.110Z,98924.00
2022-11-23T03:58:49.523Z,98922.22
2022-11-23T04:01:52.051Z,98910.84
2022-11-23T04:04:55.011Z,98891.66
2022-11-23T04:07:59.635Z,98912.75
2022-11-23T04:11:02.425Z,98903.97
2022-11-23T04:14:06.406Z,98913.94
2022-11-23T04:17:08.914Z,98913.56
2022-11-23T04:20:11.834Z,98923.69
2022-11-23T04:23:14.423Z,98918.75
2022-11-23T04:26:17.271Z,98911.03
2022-11-23T04:29:20.129Z,98920.81
2022-11-23T04:32:22.941Z,98892.53
2022-11-23T04:35:25.593Z,98935.09
2022-11-23T04:38:28.348Z,98912.63
2022-11-23T04:41:31.493Z,98928.38
2022-11-23T04:44:34.776Z,98908.84
2022-11-23T04:47:37.507Z,98931.25
2022-11-23T04:50:43.044Z,98929.00
2022-11-23T04:53:50.105Z,98932.19
2022-11-23T04:56:54.159Z,98933.78
2022-11-23T04:59:56.734Z,98923.28
2022-11-23T05:03:00.900Z,98913.03
2022-11-23T05:06:04.640Z,98908.38
2022-11-23T05:09:08.152Z,98907.09
2022-11-23T05:12:11.267Z,98922.88
2022-11-23T05:15:14.719Z,98906.75
2022-11-23T05:18:17.517Z,98827.37
2022-11-23T05:21:19.886Z,98929.44
2022-11-23T05:24:24.294Z,98896.72
2022-11-23T05:27:28.040Z,98901.16
2022-11-23T05:30:31.910Z,98910.09
2022-11-23T05:33:34.214Z,98899.84
2022-11-23T05:36:42.043Z,98835.69
2022-11-23T05:39:44.839Z,98906.09
2022-11-23T05:42:49.146Z,98883.41
2022-11-23T05:45:52.788Z,98902.91
2022-11-23T05:48:56.513Z,98876.41
2022-11-23T05:51:58.992Z,98906.16
2022-11-23T05:55:01.775Z,98877.22
2022-11-23T05:58:04.543Z,98877.81
2022-11-23T06:01:07.455Z,98876.56
2022-11-23T06:04:10.726Z,98900.84
2022-11-23T06:07:14.284Z,98878.13
2022-11-23T06:10:18.506Z,98915.09
2022-11-23T06:13:21.534Z,98898.63
2022-11-23T06:16:24.366Z,98919.94
2022-11-23T06:19:30.596Z,98927.41
2022-11-23T06:22:33.847Z,98917.16
2022-11-23T06:25:38.741Z,98902.13
2022-11-23T06:28:41.871Z,98926.06
2022-11-23T06:31:44.902Z,98927.66
2022-11-23T06:34:48.157Z,98930.84
2022-11-23T06:37:52.103Z,98941.78
2022-11-23T06:40:59.944Z,98922.62
2022-11-23T06:44:03.832Z,98937.12
2022-11-23T06:47:07.219Z,98917.81
2022-11-23T06:50:10.089Z,98916.34
2022-11-23T06:53:12.800Z,98920.34
2022-11-23T06:56:15.701Z,98931.47
2022-11-23T06:59:22.837Z,98922.47
2022-11-23T07:02:25.422Z,98907.97
2022-11-23T07:05:30.222Z,98895.53
2022-11-23T07:08:34.238Z,98946.06
2022-11-23T07:11:40.233Z,98948.56
2022-11-23T07:14:42.475Z,98952.91
2022-11-23T07:17:46.043Z,98942.72
2022-11-23T07:20:48.578Z,98954.63
2022-11-23T07:23:51.156Z,98958.97
2022-11-23T07:26:54.723Z,98950.97
2022-11-23T07:29:57.307Z,98961.22
2022-11-23T07:33:05.742Z,98949.84
2022-11-23T07:36:10.326Z,98937.72
2022-11-23T07:39:13.003Z,98949.37
2022-11-23T07:45:38.722Z,98955.50
2022-11-23T07:48:42.624Z,98921.25
2022-11-23T07:51:44.977Z,98955.97
2022-11-23T07:54:47.502Z,98953.88
2022-11-23T07:57:55.690Z,98940.00
2022-11-23T08:00:58.194Z,98933.53
2022-11-23T08:04:00.673Z,98960.41
2022-11-23T08:07:04.076Z,98966.00
2022-11-23T08:10:06.820Z,98943.78
2022-11-23T08:13:09.055Z,98949.63
2022-11-23T08:16:11.734Z,98968.84
2022-11-23T08:19:13.984Z,98943.50
2022-11-23T08:22:16.791Z,98954.75
2022-11-23T08:25:19.068Z,98978.19
2022-11-23T08:28:23.644Z,98975.09
2022-11-23T08:31:25.988Z,98971.25
2022-11-23T08:34:28.507Z,98982.41
2022-11-23T08:37:31.021Z,98960.03
2022-11-23T08:40:33.840Z,98978.56
2022-11-23T08:43:36.239Z,98958.56
2022-11-23T08:46:39.515Z,98985.16
2022-11-23T08:49:44.480Z,98984.69
2022-11-23T08:52:54.309Z,98974.56
2022-11-23T08:56:07.612Z,98915.16
2022-11-23T08:59:12.806Z,98989.34
2022-11-23T09:02:15.225Z,98892.94
2022-11-23T09:05:17.852Z,98976.69
2022-11-23T09:08:20.140Z,98991.88
2022-11-23T09:11:22.830Z,98954.13
2022-11-23T09:14:27.705Z,98962.31
2022-11-23T09:17:32.458Z,98967.56
2022-11-23T09:20:34.947Z,98995.75
2022-11-23T09:23:37.573Z,98969.63
2022-11-23T09:26:40.599Z,98980.84
2022-11-23T09:29:43.119Z,98983.34
2022-11-23T09:32:45.511Z,98999.53
2022-11-23T09:35:48.086Z,98995.19
2022-11-23T09:38:57.963Z,98959.38
2022-11-23T09:42:17.154Z,98995.47
2022-11-23T09:45:34.929Z,98989.34
2022-11-23T09:48:48.948Z,98986.72
2022-11-23T09:51:55.632Z,98991.19
2022-11-23T09:55:04.637Z,98960.62
2022-11-23T09:58:07.844Z,98982.50
2022-11-23T10:01:19.445Z,98981.28
2022-11-23T10:04:22.924Z,98963.81
2022-11-23T10:07:46.468Z,98989.81
2022-11-23T10:11:04.363Z,98997.09
2022-11-23T10:14:37.565Z,98984.25
2022-11-23T10:17:57.328Z,98988.25
2022-11-23T10:21:30.118Z,98983.22
2022-11-23T10:24:42.755Z,98990.16
2022-11-23T10:27:47.959Z,98977.19
2022-11-23T10:31:07.814Z,98971.03
2022-11-23T10:34:16.486Z,98978.22
2022-11-23T10:37:19.073Z,98975.25
2022-11-23T10:40:26.680Z,98948.38
2022-11-23T10:43:37.018Z,98960.47
2022-11-23T10:46:40.685Z,98976.19
2022-11-23T10:49:56.107Z,98979.37
2022-11-23T10:53:02.431Z,98991.94
2022-11-23T10:56:13.067Z,98978.03
2022-11-23T10:59:37.543Z,98981.22
2022-11-23T11:02:45.338Z,98978.19
2022-11-23T11:06:09.447Z,98953.44
2022-11-23T11:09:21.223Z,98971.00
2022-11-23T11:12:24.630Z,98964.75
2022-11-23T11:15:28.566Z,98941.72
2022-11-23T11:18:38.281Z,98941.72
2022-11-23T11:21:42.262Z,98947.31
2022-11-23T11:24:50.063Z,98936.00
2022-11-23T11:27:52.986Z,98959.16
2022-11-23T11:31:32.404Z,98946.41
2022-11-23T11:35:04.329Z,98966.25
2022-11-23T11:38:29.725Z,98959.16
2022-11-23T11:41:33.390Z,98951.66
2022-11-23T11:44:40.381Z,98955.16
2022-11-23T11:47:57.634Z,98965.91
2022-11-23T11:51:18.848Z,98964.28
2022-11-23T11:54:37.203Z,98971.00
2022-11-23T11:57:48.916Z,98969.63
2022-11-23T12:01:00.232Z,98948.19
2022-11-23T12:04:20.586Z,98948.19
2022-11-23T12:07:44.283Z,98953.66
2022-11-23T12:10:52.111Z,98972.81
2022-11-23T12:14:02.335Z,98982.97
2022-11-23T12:17:41.435Z,98975.88
2022-11-23T12:20:58.741Z,98973.59
2022-11-23T12:24:45.732Z,98962.34
2022-11-23T12:28:13.630Z,98949.69
2022-11-23T12:31:39.317Z,98971.22
2022-11-23T12:34:44.557Z,98977.94
2022-11-23T12:38:06.107Z,98977.59
2022-11-23T12:41:26.984Z,98943.63
2022-11-23T12:45:02.759Z,98925.97
2022-11-23T12:48:18.713Z,98959.97
2022-11-23T12:51:30.915Z,98953.03
2022-11-23T12:54:40.566Z,98957.69
2022-11-23T12:57:50.255Z,98960.09
2022-11-23T13:01:03.047Z,98927.72
2022-11-23T13:04:42.849Z,98931.12
2022-11-23T13:08:09.747Z,98974.91
2022-11-23T13:11:30.653Z,98958.63
2022-11-23T13:14:59.982Z,98961.69
2022-11-23T13:18:12.166Z,98974.22
2022-11-23T13:21:37.811Z,98975.56
2022-11-23T13:24:58.387Z,98981.84
2022-11-23T13:28:29.083Z,98957.22
2022-11-23T13:31:33.684Z,98985.16
2022-11-23T13:34:47.449Z,98992.25
2022-11-23T13:37:56.201Z,98960.06
2022-11-23T13:40:58.601Z,98990.50
2022-11-23T13:44:32.289Z,98961.19
2022-11-23T13:47:37.327Z,98978.88
2022-11-23T13:50:48.258Z,98968.28
2022-11-23T13:54:06.269Z,98984.91
2022-11-23T13:57:15.314Z,98981.81
2022-11-23T14:00:48.670Z,98981.59
2022-11-23T14:03:55.792Z,98989.22
2022-11-23T14:07:00.051Z,98986.59
2022-11-23T14:10:09.922Z,98993.31
2022-11-23T14:13:19.240Z,98996.88
2022-11-23T14:16:55.699Z,98991.62
2022-11-23T14:20:35.458Z,98996.28
2022-11-23T14:23:44.134Z,98995.37
2022-11-23T14:27:30.751Z,98992.16
2022-11-23T14:30:35.652Z,98999.91
2022-11-23T14:33:48.595Z,98998.66
2022-11-23T14:36:57.448Z,99009.94
2022-11-23T14:40:06.693Z,98985.75
2022-11-23T14:43:14.248Z,98990.09
2022-11-23T14:46:19.817Z,99009.22
2022-11-23T14:49:23.220Z,99015.19
2022-11-23T14:52:32.251Z,98987.34
2022-11-23T14:55:34.779Z,98991.66
2022-11-23T14:58:37.091Z,98989.41
2022-11-23T15:01:46.344Z,99014.97
2022-11-23T15:04:54.423Z,99004.47
2022-11-23T15:08:02.930Z,99026.72
2022-11-23T15:11:12.498Z,99024.75
2022-11-23T15:14:22.010Z,99012.44
2022-11-23T15:17:24.334Z,99030.69
2022-11-23T15:20:33.695Z,99011.06
2022-11-23T15:23:40.905Z,99031.59
2022-11-23T15:26:49.087Z,99022.81
2022-11-23T15:29:54.515Z,99026.13
2022-11-23T15:32:59.078Z,99028.94
2022-11-23T15:36:03.027Z,99042.44
2022-11-23T15:39:09.693Z,99045.50
2022-11-23T15:42:19.989Z,99041.16
2022-11-23T15:46:05.083Z,99020.88
2022-11-23T15:49:14.761Z,99033.16
2022-11-23T15:52:19.633Z,99028.38
2022-11-23T15:55:23.455Z,99034.19
2022-11-23T15:58:26.302Z,99038.19
2022-11-23T16:01:31.090Z,99039.50
2022-11-23T16:04:40.942Z,99047.03
2022-11-23T16:07:59.856Z,99045.12
2022-11-23T16:11:02.563Z,99055.25
2022-11-23T16:14:15.649Z,99036.75
2022-11-23T16:17:29.001Z,99043.50
2022-11-23T16:20:32.345Z,99063.22
2022-11-23T16:23:51.230Z,99057.66
2022-11-23T16:26:53.838Z,99065.06
2022-11-23T16:30:01.473Z,99060.03
2022-11-23T16:33:06.571Z,99074.31
2022-11-23T16:36:09.396Z,99069.19
2022-11-23T16:39:11.906Z,99079.22
2022-11-23T16:42:16.174Z,99073.28
2022-11-23T16:45:18.708Z,99064.25
2022-11-23T16:48:42.052Z,99076.94
2022-11-23T16:51:45.046Z,99076.16
2022-11-23T16:54:47.817Z,99063.22
2022-11-23T16:57:50.288Z,99080.94
2022-11-23T17:00:53.366Z,99082.56
2022-11-23T17:03:56.105Z,99080.13
2022-11-23T17:06:58.745Z,99075.34
2022-11-23T17:10:01.066Z,99087.22
2022-11-23T17:13:11.966Z,99086.56
2022-11-23T17:16:19.956Z,99086.75
2022-11-23T17:19:23.307Z,99059.25
2022-11-23T17:22:25.849Z,99038.72
2022-11-23T17:25:28.511Z,99088.81
2022-11-23T17:28:30.915Z,99088.34
2022-11-23T17:31:33.498Z,99092.81
2022-11-23T17:34:35.738Z,99094.25
2022-11-23T17:37:38.373Z,99099.06
2022-11-23T17:40:40.815Z,99097.50
2022-11-23T17:43:43.434Z,99095.22
2022-11-23T17:46:47.541Z,99091.81
2022-11-23T17:49:50.140Z,99103.53
2022-11-23T17:52:52.424Z,99098.41
2022-11-23T17:55:55.487Z,99080.00
2022-11-23T17:58:58.018Z,99079.22
2022-11-23T18:02:00.688Z,99102.28
2022-11-23T18:05:03.488Z,99100.69
2022-11-23T18:08:06.020Z,99099.56
2022-11-23T18:11:09.026Z,99110.13
2022-11-23T18:14:11.276Z,99101.03
2022-11-23T18:17:13.911Z,99086.28
2022-11-23T18:20:18.718Z,99092.41
2022-11-23T18:23:21.255Z,99112.06
2022-11-23T18:26:26.282Z,99115.97
2022-11-23T18:29:28.879Z,99104.28
2022-11-23T18:32:31.446Z,99107.75
2022-11-23T18:35:34.086Z,99107.28
2022-11-23T18:38:36.907Z,99104.44
2022-11-23T18:41:39.837Z,99097.44
2022-11-23T18:44:42.188Z,99114.56
2022-11-23T18:47:44.770Z,99109.53
2022-11-23T18:50:47.160Z,99096.31
2022-11-23T18:53:51.360Z,99114.69
2022-11-23T18:56:53.710Z,99111.16
2022-11-23T18:59:58.279Z,99110.66
2022-11-23T19:03:02.526Z,99098.81
2022-11-23T19:06:06.454Z,99114.81
2022-11-23T19:09:08.782Z,99119.16
2022-11-23T19:12:12.742Z,99125.88
2022-11-23T19:15:15.145Z,99101.34
2022-11-23T19:18:17.765Z,99129.06
2022-11-23T19:21:22.309Z,99120.88
2022-11-23T19:24:25.144Z,99089.22
2022-11-23T19:27:27.461Z,99117.09
2022-11-23T19:30:30.091Z,99133.06
2022-11-23T19:33:32.434Z,99118.69
2022-11-23T19:36:40.699Z,99113.41
2022-11-23T19:39:42.963Z,99128.25
2022-11-23T19:42:45.501Z,99136.94
2022-11-23T19:45:54.659Z,99135.34
2022-11-23T19:48:58.493Z,99139.78
2022-11-23T19:52:01.854Z,99146.53
2022-11-23T19:55:05.951Z,99123.50
2022-11-23T19:58:08.305Z,99148.13
2022-11-23T20:01:13.182Z,99144.12
2022-11-23T20:04:15.798Z,99144.47
2022-11-23T20:07:19.332Z,99150.41
2022-11-23T20:10:23.211Z,99137.28
2022-11-23T20:13:25.498Z,99154.28
2022-11-23T20:16:30.253Z,99147.31
2022-11-23T20:19:32.767Z,99136.00
2022-11-23T20:22:35.888Z,99142.63
2022-11-23T20:25:38.387Z,99158.16
2022-11-23T20:28:42.126Z,99142.16
2022-11-23T20:31:44.918Z,99165.66
2022-11-23T20:34:47.524Z,99168.41
2022-11-23T20:37:50.289Z,99165.88
2022-11-23T20:40:53.012Z,99171.84
2022-11-23T20:44:01.195Z,99157.88
2022-11-23T20:47:04.175Z,99178.22
2022-11-23T20:50:07.201Z,99183.69
2022-11-23T20:53:13.533Z,99184.81
2022-11-23T20:56:16.905Z,99169.63
2022-11-23T20:59:20.965Z,99199.78
2022-11-23T21:02:23.614Z,99193.50
2022-11-23T21:05:26.926Z,99197.03
2022-11-23T21:08:34.674Z,99184.09
2022-11-23T21:11:57.085Z,99202.16
2022-11-23T21:15:00.477Z,99192.34
2022-11-23T21:18:11.525Z,99165.34
2022-11-23T21:21:14.548Z,99198.69
2022-11-23T21:24:18.240Z,99205.78
2022-11-23T21:27:23.747Z,99207.38
2022-11-23T21:30:30.839Z,99202.59
2022-11-23T21:33:33.089Z,99185.91
2022-11-23T21:36:39.334Z,99199.38
2022-11-23T21:39:42.072Z,99203.72
2022-11-23T21:42:44.869Z,99192.03
2022-11-23T21:45:47.418Z,99189.78
2022-11-23T21:48:53.580Z,99213.84
2022-11-23T21:51:56.062Z,99217.38
2022-11-23T21:54:58.706Z,99212.56
2022-11-23T21:58:01.054Z,99208.31
2022-11-23T22:01:07.131Z,99218.72
2022-11-23T22:04:12.559Z,99222.72
2022-11-23T22:07:14.878Z,99206.91
2022-11-23T22:10:17.794Z,99227.41
2022-11-23T22:13:20.271Z,99232.53
2022-11-23T22:16:28.691Z,99224.66
2022-11-23T22:19:30.997Z,99230.44
2022-11-23T22:22:33.517Z,99222.47
2022-11-23T22:25:36.598Z,99216.84
2022-11-23T22:28:41.614Z,99221.00
2022-11-23T22:31:44.235Z,99232.38
2022-11-23T22:34:46.931Z,99231.94
2022-11-23T22:37:50.675Z,99212.69
2022-11-23T22:40:55.526Z,99241.25
2022-11-23T22:44:02.079Z,99243.53
2022-11-23T22:47:04.720Z,99214.84
2022-11-23T22:50:07.616Z,99221.56
2022-11-23T22:53:10.796Z,99216.31
2022-11-23T22:56:18.904Z,99244.19
2022-11-23T22:59:21.462Z,99250.31
2022-11-23T23:02:24.286Z,99246.31
2022-11-23T23:05:28.763Z,99241.41
2022-11-23T23:08:31.976Z,99241.25
2022-11-23T23:11:35.436Z,99260.34
2022-11-23T23:14:37.768Z,99259.19
2022-11-23T23:17:40.261Z,99258.72
2022-11-23T23:20:45.198Z,99266.47
2022-11-23T23:23:49.910Z,99269.66
2022-11-23T23:26:53.224Z,99270.59
2022-11-23T23:29:55.872Z,99260.34
2022-11-23T23:32:59.975Z,99273.81
2022-11-23T23:36:07.228Z,99269.47
2022-11-23T23:39:10.957Z,99255.22
2022-11-23T23:42:13.574Z,99271.94
2022-11-23T23:45:16.400Z,99270.97
2022-11-23T23:48:19.380Z,99280.94
2022-11-23T23:51:24.680Z,99266.31
2022-11-23T23:54:27.327Z,99277.25
2022-11-23T23:57:30.079Z,99270.97
